Terminal Aerodrome Forecast
Issued by NWS Sterling, VA

Current Version | Previous Version | Graphics & Text | Print | Product List | Glossary On
Versions: 1 2 3 4 5 6 7 8 9 10 11 12 13 14 15 16 17 18 19 20 21 22 23 24
000
FTUS41 KLWX 221700
TAFIAD
TAF
KIAD 221720Z 2218/2324 VRB03KT P6SM SCT030 OVC060
     FM231000 05006KT P6SM OVC030
     FM231100 05006KT P6SM OVC020
     FM231600 05006KT P6SM BKN025
     FM231800 05006KT P6SM BKN050=

USA.gov is the U.S. government's official web portal to all federal, state and local government web resources and services.